Burton, Illinois
Current Conditions -  °F | °C
As of 4:54 AM on Saturday 25 Oct 2014 (Local Time) from KUIN Reporting Station
Haze Haze  
Wind Chill: 57°   Ceiling: Unl
Heat Index: 57°   Visibility: 1.7mi
Dew Point: 56°   Wind: 5mph
Humidity: 96%   Direction: 270°W
Pressure: 29.98"   Gusts: NA
Location:  39.9317°N, 91.2953°W
Report Text: KUIN 250954Z AUTO 27004KT 1 3/4SM BR CLR 14/13 A2998 RMK AO2 SLP151 T01390133
Loading
Personal Weather Stations






























Interactive Weather Map
Tropical Storm Tracking
New forecast layout! Learn more

10-Day Weather Forecast

Advertisements
Track Severe Weather on mobile